Terminal Aerodrome Forecast
Issued by NWS

Home | Current Version | Previous Version | Text Only | Print | Product List | Glossary On
Versions: 1 2 3 4 5 6 7 8 9 10 11 12 13 14 15 16 17 18 19 20 21 22 23 24
000
FTUS45 KGJT 172321
TAFEGE
TAF
KEGE 172321Z 1800/1824 25012KT P6SM SCT250
     FM180200 14004KT P6SM FEW200 FEW250
     FM182100 25007KT P6SM FEW150 FEW250
      AMD LTD TO CLD VIS AND WIND 1801/1813=

USA.gov is the U.S. government's official web portal to all federal, state and local government web resources and services.